createdAt,value
2017-07-29T00:02:18.492Z,18.00
2017-07-29T00:04:46.788Z,17.90
2017-07-29T00:07:15.097Z,17.90
2017-07-29T00:09:43.352Z,17.90
2017-07-29T00:12:11.616Z,17.80
2017-07-29T00:14:39.930Z,17.80
2017-07-29T00:17:08.203Z,17.80
2017-07-29T00:19:36.460Z,17.80
2017-07-29T00:22:04.757Z,17.80
2017-07-29T00:24:33.015Z,17.80
2017-07-29T00:27:01.296Z,17.80
2017-07-29T00:29:29.584Z,17.80
2017-07-29T00:31:57.839Z,17.80
2017-07-29T00:34:26.141Z,17.70
2017-07-29T00:36:54.401Z,17.70
2017-07-29T00:39:22.667Z,17.70
2017-07-29T00:41:50.976Z,17.70
2017-07-29T00:44:19.235Z,17.70
2017-07-29T00:46:47.500Z,17.80
2017-07-29T00:49:15.799Z,17.70
2017-07-29T00:51:44.060Z,17.70
2017-07-29T00:54:11.556Z,17.70
2017-07-29T00:56:39.858Z,17.70
2017-07-29T00:59:08.129Z,17.70
2017-07-29T01:01:36.389Z,17.70
2017-07-29T01:04:04.689Z,17.70
2017-07-29T01:06:32.958Z,17.80
2017-07-29T01:09:01.236Z,17.80
2017-07-29T01:11:29.551Z,17.80
2017-07-29T01:13:57.818Z,17.70
2017-07-29T01:16:26.077Z,17.70
2017-07-29T01:18:54.368Z,17.70
2017-07-29T01:21:22.629Z,17.80
2017-07-29T01:23:50.936Z,17.80
2017-07-29T01:26:19.201Z,17.90
2017-07-29T01:28:47.460Z,17.80
2017-07-29T01:31:15.776Z,17.90
2017-07-29T01:33:44.036Z,17.80
2017-07-29T01:36:12.304Z,17.70
2017-07-29T01:38:40.597Z,17.90
2017-07-29T01:41:08.100Z,17.90
2017-07-29T01:43:36.401Z,17.80
2017-07-29T01:46:04.665Z,18.00
2017-07-29T01:48:32.932Z,18.00
2017-07-29T01:51:01.212Z,18.00
2017-07-29T01:53:29.473Z,17.90
2017-07-29T01:55:57.775Z,17.70
2017-07-29T01:58:26.035Z,17.80
2017-07-29T02:00:54.286Z,17.80
2017-07-29T02:03:22.567Z,17.80
2017-07-29T02:05:50.820Z,17.70
2017-07-29T02:08:19.122Z,17.70
2017-07-29T02:10:47.401Z,17.80
2017-07-29T02:13:15.705Z,17.80
2017-07-29T02:15:43.970Z,17.80
2017-07-29T02:18:12.247Z,17.90
2017-07-29T02:20:40.542Z,18.00
2017-07-29T02:23:08.814Z,18.00
2017-07-29T02:25:36.300Z,18.00
2017-07-29T02:28:04.605Z,17.90
2017-07-29T02:30:32.863Z,17.90
2017-07-29T02:33:01.135Z,18.00
2017-07-29T02:35:29.441Z,18.00
2017-07-29T02:37:57.703Z,17.90
2017-07-29T02:40:25.956Z,18.00
2017-07-29T02:42:54.274Z,18.00
2017-07-29T02:45:22.537Z,18.00
2017-07-29T02:47:50.839Z,18.00
2017-07-29T02:50:19.103Z,18.10
2017-07-29T02:52:47.408Z,18.00
2017-07-29T02:55:15.680Z,18.00
2017-07-29T02:57:43.998Z,18.00
2017-07-29T03:00:12.261Z,18.10
2017-07-29T03:02:40.526Z,18.10
2017-07-29T03:05:08.825Z,18.20
2017-07-29T03:07:37.128Z,18.20
2017-07-29T03:10:05.391Z,18.20
2017-07-29T03:12:33.639Z,18.10
2017-07-29T03:15:01.924Z,18.20
2017-07-29T03:17:30.189Z,18.20
2017-07-29T03:19:58.467Z,18.20
2017-07-29T03:22:26.772Z,18.20
2017-07-29T03:24:55.035Z,18.10
2017-07-29T03:27:23.305Z,18.10
2017-07-29T03:29:51.596Z,18.20
2017-07-29T03:32:19.854Z,18.20
2017-07-29T03:34:48.137Z,18.20
2017-07-29T03:37:16.443Z,18.20
2017-07-29T03:39:44.701Z,18.30
2017-07-29T03:42:12.964Z,18.20
2017-07-29T03:44:41.266Z,18.20
2017-07-29T03:47:09.534Z,18.10
2017-07-29T03:49:37.799Z,18.20
2017-07-29T03:52:06.104Z,18.20
2017-07-29T03:54:34.371Z,18.20
2017-07-29T03:57:02.640Z,18.20
2017-07-29T03:59:30.915Z,18.20
2017-07-29T04:01:59.178Z,18.30
2017-07-29T04:04:27.485Z,18.20
2017-07-29T04:06:55.752Z,18.20
2017-07-29T04:09:24.021Z,18.20
2017-07-29T04:11:52.315Z,18.20
2017-07-29T04:14:20.572Z,18.20
2017-07-29T04:16:48.837Z,18.20
2017-07-29T04:19:17.124Z,18.20
2017-07-29T04:21:45.380Z,18.10
2017-07-29T04:24:13.685Z,18.20
2017-07-29T04:26:41.947Z,18.20
2017-07-29T04:29:10.204Z,18.40
2017-07-29T04:31:38.505Z,18.30
2017-07-29T04:34:06.761Z,18.30
2017-07-29T04:36:35.020Z,18.40
2017-07-29T04:39:03.311Z,18.30
2017-07-29T04:41:31.589Z,18.30
2017-07-29T04:43:59.849Z,18.30
2017-07-29T04:46:28.141Z,18.30
2017-07-29T04:48:56.425Z,18.40
2017-07-29T04:51:24.688Z,18.40
2017-07-29T04:53:53.018Z,18.40
2017-07-29T04:56:20.504Z,18.40
2017-07-29T04:58:48.752Z,18.50
2017-07-29T05:01:17.045Z,18.60
2017-07-29T05:03:45.308Z,18.50
2017-07-29T05:06:13.571Z,18.50
2017-07-29T05:08:42.249Z,18.60
2017-07-29T05:11:10.505Z,18.70
2017-07-29T05:13:38.765Z,18.70
2017-07-29T05:16:07.071Z,18.70
2017-07-29T05:18:35.334Z,18.60
2017-07-29T05:21:03.601Z,18.70
2017-07-29T05:23:31.891Z,18.80
2017-07-29T05:26:00.158Z,18.70
2017-07-29T05:28:28.450Z,18.80
2017-07-29T05:30:56.747Z,18.90
2017-07-29T05:33:25.013Z,18.80
2017-07-29T05:35:53.312Z,19.00
2017-07-29T05:38:21.581Z,18.90
2017-07-29T05:40:49.840Z,19.00
2017-07-29T05:43:18.128Z,19.00
2017-07-29T05:45:46.409Z,19.10
2017-07-29T05:48:14.668Z,19.00
2017-07-29T05:50:42.943Z,19.20
2017-07-29T05:53:11.242Z,19.10
2017-07-29T05:55:39.492Z,19.20
2017-07-29T05:58:07.750Z,19.20
2017-07-29T06:00:36.124Z,19.30
2017-07-29T06:03:04.424Z,19.30
2017-07-29T06:05:32.681Z,19.50
2017-07-29T06:08:00.942Z,19.40
2017-07-29T06:10:29.229Z,19.40
2017-07-29T06:12:57.505Z,19.40
2017-07-29T06:15:25.820Z,19.30
2017-07-29T06:17:54.095Z,19.40
2017-07-29T06:20:22.359Z,19.40
2017-07-29T06:22:50.664Z,19.50
2017-07-29T06:25:18.928Z,19.50
2017-07-29T06:27:47.192Z,19.50
2017-07-29T06:30:15.472Z,19.60
2017-07-29T06:32:43.736Z,19.70
2017-07-29T06:35:12.028Z,19.70
2017-07-29T06:37:40.282Z,19.80
2017-07-29T06:40:08.597Z,19.70
2017-07-29T06:42:36.853Z,19.80
2017-07-29T06:45:05.126Z,19.70
2017-07-29T06:47:33.421Z,19.70
2017-07-29T06:50:01.672Z,19.70
2017-07-29T06:52:29.933Z,19.80
2017-07-29T06:54:58.221Z,19.90
2017-07-29T06:57:26.475Z,19.80
2017-07-29T06:59:54.757Z,19.80
2017-07-29T07:02:29.094Z,19.80
2017-07-29T07:04:57.807Z,19.80
2017-07-29T07:07:26.071Z,19.90
2017-07-29T07:09:54.326Z,20.00
2017-07-29T07:12:22.621Z,19.90
2017-07-29T07:14:50.926Z,19.90
2017-07-29T07:17:19.196Z,19.80
2017-07-29T07:19:47.452Z,19.80
2017-07-29T07:22:15.735Z,19.80
2017-07-29T07:24:43.991Z,19.90
2017-07-29T07:27:12.290Z,19.80
2017-07-29T07:29:40.553Z,19.90
2017-07-29T07:32:08.864Z,19.80
2017-07-29T07:34:37.116Z,19.80
2017-07-29T07:37:05.380Z,20.00
2017-07-29T07:39:33.691Z,20.10
2017-07-29T07:42:01.960Z,20.20
2017-07-29T07:44:30.224Z,20.10
2017-07-29T07:46:58.528Z,20.20
2017-07-29T07:49:26.784Z,20.20
2017-07-29T07:51:55.049Z,20.20
2017-07-29T07:54:23.354Z,20.30
2017-07-29T07:56:51.616Z,20.40
2017-07-29T07:59:19.892Z,20.40
2017-07-29T08:01:48.196Z,20.40
2017-07-29T08:04:16.449Z,20.40
2017-07-29T08:06:44.708Z,20.60
2017-07-29T08:09:13.009Z,20.60
2017-07-29T08:11:41.332Z,20.60
2017-07-29T08:14:09.591Z,20.60
2017-07-29T08:16:37.860Z,20.60
2017-07-29T08:19:06.176Z,20.60
2017-07-29T08:21:34.438Z,20.70
2017-07-29T08:24:02.699Z,20.80
2017-07-29T08:26:30.995Z,21.00
2017-07-29T08:28:59.282Z,20.90
2017-07-29T08:31:27.541Z,21.00
2017-07-29T08:33:55.833Z,21.00
2017-07-29T08:36:24.127Z,21.00
2017-07-29T08:38:52.391Z,21.10
2017-07-29T08:41:20.655Z,21.10
2017-07-29T08:43:48.965Z,21.10
2017-07-29T08:46:17.224Z,21.20
2017-07-29T08:48:45.480Z,21.30
2017-07-29T08:51:13.775Z,21.20
2017-07-29T08:53:42.050Z,21.20
2017-07-29T08:56:10.303Z,21.30
2017-07-29T08:58:37.850Z,21.30
2017-07-29T09:01:06.128Z,21.20
2017-07-29T09:03:34.400Z,21.20
2017-07-29T09:06:02.700Z,21.30
2017-07-29T09:08:30.965Z,21.40
2017-07-29T09:10:59.248Z,21.50
2017-07-29T09:13:27.552Z,21.50
2017-07-29T09:15:55.812Z,21.40
2017-07-29T09:18:24.104Z,21.40
2017-07-29T09:20:52.367Z,21.40
2017-07-29T09:23:20.664Z,21.50
2017-07-29T09:25:48.939Z,21.70
2017-07-29T09:28:17.205Z,21.90
2017-07-29T09:30:45.498Z,21.80
2017-07-29T09:33:13.767Z,21.90
2017-07-29T09:35:42.071Z,22.10
2017-07-29T09:38:11.304Z,22.10
2017-07-29T09:40:39.599Z,22.10
2017-07-29T09:43:07.860Z,22.10
2017-07-29T09:45:35.358Z,22.10
2017-07-29T09:48:03.632Z,22.30
2017-07-29T09:50:31.888Z,22.20
2017-07-29T09:53:00.177Z,22.20
2017-07-29T09:55:28.439Z,22.30
2017-07-29T09:57:56.745Z,22.50
2017-07-29T10:00:25.015Z,22.40
2017-07-29T10:02:53.281Z,22.50
2017-07-29T10:05:21.577Z,22.70
2017-07-29T10:07:49.848Z,22.90
2017-07-29T10:10:18.132Z,23.00
2017-07-29T10:12:46.396Z,23.10
2017-07-29T10:15:14.692Z,23.10
2017-07-29T10:17:42.954Z,23.20
2017-07-29T10:20:11.273Z,23.30
2017-07-29T10:22:39.536Z,23.30
2017-07-29T10:25:07.850Z,23.30
2017-07-29T10:27:36.122Z,23.40
2017-07-29T10:30:04.385Z,23.50
2017-07-29T10:32:32.688Z,23.50
2017-07-29T10:35:00.953Z,23.50
2017-07-29T10:37:29.239Z,23.60
2017-07-29T10:39:57.499Z,23.60
2017-07-29T10:42:25.806Z,23.60
2017-07-29T10:44:54.090Z,23.60
2017-07-29T10:47:21.590Z,23.60
2017-07-29T10:49:49.884Z,23.50
2017-07-29T10:52:18.187Z,23.70
2017-07-29T10:54:45.688Z,23.80
2017-07-29T10:57:13.994Z,23.70
2017-07-29T10:59:42.284Z,23.80
2017-07-29T11:02:10.605Z,23.90
2017-07-29T11:04:38.884Z,23.90
2017-07-29T11:07:07.149Z,23.80
2017-07-29T11:09:35.458Z,23.80
2017-07-29T11:12:03.736Z,23.60
2017-07-29T11:14:31.996Z,23.50
2017-07-29T11:17:00.304Z,23.60
2017-07-29T11:19:28.564Z,23.60
2017-07-29T11:21:56.833Z,23.70
2017-07-29T11:24:25.129Z,23.90
2017-07-29T11:26:53.414Z,24.00
2017-07-29T11:29:21.730Z,23.90
2017-07-29T11:31:49.999Z,24.10
2017-07-29T11:34:18.260Z,24.20
2017-07-29T11:36:46.547Z,24.40
2017-07-29T11:39:14.813Z,24.30
2017-07-29T11:41:43.135Z,24.30
2017-07-29T11:44:11.397Z,24.30
2017-07-29T11:46:39.661Z,24.50
2017-07-29T11:49:07.941Z,24.70
2017-07-29T11:51:36.205Z,24.80
2017-07-29T11:54:04.497Z,24.90
2017-07-29T11:56:32.772Z,25.00
2017-07-29T11:59:01.085Z,25.20
2017-07-29T12:01:30.884Z,25.30
2017-07-29T12:03:59.191Z,25.20
2017-07-29T12:06:27.451Z,25.10
2017-07-29T12:08:55.709Z,25.40
2017-07-29T12:11:24.022Z,25.40
2017-07-29T12:13:52.288Z,25.50
2017-07-29T12:16:20.564Z,25.50
2017-07-29T12:18:48.859Z,25.40
2017-07-29T12:21:17.158Z,25.60
2017-07-29T12:23:45.470Z,25.70
2017-07-29T12:26:13.732Z,25.90
2017-07-29T12:28:41.996Z,26.00
2017-07-29T12:31:10.285Z,26.00
2017-07-29T12:33:38.591Z,26.20
2017-07-29T12:36:06.849Z,26.20
2017-07-29T12:38:35.116Z,26.00
2017-07-29T12:41:03.429Z,25.90
2017-07-29T12:43:31.683Z,26.00
2017-07-29T12:45:59.953Z,26.00
2017-07-29T12:48:27.489Z,26.00
2017-07-29T12:50:55.756Z,26.10
2017-07-29T12:53:24.025Z,26.10
2017-07-29T12:55:52.315Z,25.90
2017-07-29T12:58:20.604Z,25.90
2017-07-29T13:00:48.864Z,25.80
2017-07-29T13:03:17.135Z,25.80
2017-07-29T13:05:45.385Z,25.70
2017-07-29T13:08:13.678Z,25.80
2017-07-29T13:10:41.941Z,26.10
2017-07-29T13:13:10.236Z,26.30
2017-07-29T13:15:37.728Z,26.30
2017-07-29T13:18:05.997Z,26.20
2017-07-29T13:20:34.312Z,26.10
2017-07-29T13:23:02.569Z,26.20
2017-07-29T13:25:30.828Z,26.30
2017-07-29T13:27:59.131Z,26.40
2017-07-29T13:30:27.396Z,26.20
2017-07-29T13:32:55.657Z,26.10
2017-07-29T13:35:23.933Z,25.90
2017-07-29T13:37:52.214Z,25.90
2017-07-29T13:40:20.511Z,26.00
2017-07-29T13:42:48.768Z,26.10
2017-07-29T13:45:17.022Z,26.30
2017-07-29T13:47:45.317Z,26.50
2017-07-29T13:50:13.573Z,26.50
2017-07-29T13:52:41.859Z,26.50
2017-07-29T13:55:10.161Z,26.40
2017-07-29T13:57:38.416Z,26.50
2017-07-29T14:00:06.674Z,26.50
2017-07-29T14:02:34.956Z,26.60
2017-07-29T14:05:03.249Z,26.60
2017-07-29T14:07:31.553Z,26.70
2017-07-29T14:09:59.817Z,26.50
2017-07-29T14:12:28.077Z,26.40
2017-07-29T14:14:56.369Z,26.40
2017-07-29T14:17:24.657Z,26.50
2017-07-29T14:19:52.940Z,26.50
2017-07-29T14:22:21.274Z,26.60
2017-07-29T14:24:49.528Z,26.60
2017-07-29T14:27:17.784Z,26.50
2017-07-29T14:29:46.086Z,26.30
2017-07-29T14:32:14.348Z,26.20
2017-07-29T14:34:42.643Z,26.00
2017-07-29T14:37:10.913Z,25.90
2017-07-29T14:39:39.197Z,25.90
2017-07-29T14:42:07.479Z,25.90
2017-07-29T14:44:35.737Z,25.80
2017-07-29T14:47:04.046Z,25.70
2017-07-29T14:49:32.318Z,25.50
2017-07-29T14:52:00.575Z,25.50
2017-07-29T14:54:28.845Z,25.50
2017-07-29T14:56:56.341Z,25.40
2017-07-29T14:59:24.624Z,25.30
2017-07-29T15:01:52.898Z,25.30
2017-07-29T15:04:21.188Z,25.30
2017-07-29T15:06:49.468Z,25.30
2017-07-29T15:09:17.733Z,25.30
2017-07-29T15:11:46.033Z,25.30
2017-07-29T15:14:14.286Z,25.50
2017-07-29T15:16:42.540Z,25.50
2017-07-29T15:19:10.849Z,25.50
2017-07-29T15:21:39.105Z,25.40
2017-07-29T15:24:07.369Z,25.50
2017-07-29T15:26:35.653Z,25.50
2017-07-29T15:29:03.172Z,25.50
2017-07-29T15:31:31.425Z,25.50
2017-07-29T15:33:58.976Z,25.50
2017-07-29T15:36:27.236Z,25.60
2017-07-29T15:38:55.493Z,25.80
2017-07-29T15:41:23.783Z,26.10
2017-07-29T15:43:52.050Z,26.20
2017-07-29T15:46:20.341Z,26.30
2017-07-29T15:48:48.613Z,26.40
2017-07-29T15:51:16.872Z,26.60
2017-07-29T15:53:45.151Z,26.50
2017-07-29T15:56:13.448Z,26.40
2017-07-29T15:58:41.713Z,26.30
2017-07-29T16:01:09.979Z,26.40
2017-07-29T16:03:38.257Z,26.40
2017-07-29T16:06:06.543Z,26.50
2017-07-29T16:08:34.805Z,26.40
2017-07-29T16:11:03.065Z,26.30
2017-07-29T16:13:31.360Z,26.20
2017-07-29T16:15:59.653Z,26.10
2017-07-29T16:18:27.937Z,26.30
2017-07-29T16:20:56.220Z,26.30
2017-07-29T16:23:24.518Z,26.30
2017-07-29T16:25:52.781Z,26.60
2017-07-29T16:28:21.109Z,26.50
2017-07-29T16:30:49.373Z,26.40
2017-07-29T16:33:18.552Z,26.40
2017-07-29T16:35:46.845Z,26.40
2017-07-29T16:38:15.099Z,26.40
2017-07-29T16:40:43.395Z,26.30
2017-07-29T16:43:11.653Z,26.30
2017-07-29T16:45:39.916Z,26.40
2017-07-29T16:48:08.213Z,26.20
2017-07-29T16:50:36.486Z,26.10
2017-07-29T16:53:04.796Z,26.10
2017-07-29T16:55:33.054Z,26.10
2017-07-29T16:58:01.328Z,26.10
2017-07-29T17:00:29.611Z,26.10
2017-07-29T17:02:57.905Z,26.00
2017-07-29T17:05:26.177Z,26.10
2017-07-29T17:07:54.474Z,26.10
2017-07-29T17:10:22.737Z,26.20
2017-07-29T17:12:51.049Z,26.10
2017-07-29T17:15:19.304Z,26.00
2017-07-29T17:17:47.560Z,26.00
2017-07-29T17:20:15.863Z,25.90
2017-07-29T17:22:44.120Z,25.70
2017-07-29T17:25:12.407Z,25.70
2017-07-29T17:27:40.663Z,25.70
2017-07-29T17:30:08.969Z,25.70
2017-07-29T17:32:37.248Z,25.50
2017-07-29T17:35:05.536Z,25.40
2017-07-29T17:37:33.833Z,25.40
2017-07-29T17:40:02.093Z,25.20
2017-07-29T17:42:31.352Z,25.40
2017-07-29T17:44:59.620Z,25.20
2017-07-29T17:47:27.871Z,25.20
2017-07-29T17:49:56.186Z,25.10
2017-07-29T17:52:24.452Z,25.10
2017-07-29T17:54:52.725Z,24.90
2017-07-29T17:57:21.028Z,24.90
2017-07-29T17:59:49.285Z,24.90
2017-07-29T18:02:17.597Z,24.90
2017-07-29T18:04:45.873Z,24.80
2017-07-29T18:07:14.136Z,24.70
2017-07-29T18:09:42.436Z,24.70
2017-07-29T18:12:10.698Z,24.70
2017-07-29T18:14:38.952Z,24.70
2017-07-29T18:17:07.256Z,24.70
2017-07-29T18:19:35.526Z,24.60
2017-07-29T18:22:03.787Z,24.50
2017-07-29T18:24:32.082Z,24.40
2017-07-29T18:27:00.384Z,24.40
2017-07-29T18:29:28.653Z,24.30
2017-07-29T18:31:56.917Z,24.20
2017-07-29T18:34:25.209Z,24.20
2017-07-29T18:36:53.477Z,24.10
2017-07-29T18:39:21.782Z,24.10
2017-07-29T18:41:50.056Z,24.10
2017-07-29T18:44:18.329Z,24.10
2017-07-29T18:46:46.633Z,24.00
2017-07-29T18:49:14.926Z,23.90
2017-07-29T18:51:43.188Z,23.80
2017-07-29T18:54:11.470Z,23.80
2017-07-29T18:56:39.746Z,23.80
2017-07-29T18:59:08.057Z,23.80
2017-07-29T19:01:36.333Z,23.80
2017-07-29T19:04:04.607Z,23.70
2017-07-29T19:06:32.913Z,23.70
2017-07-29T19:09:01.180Z,23.70
2017-07-29T19:11:29.636Z,23.60
2017-07-29T19:13:57.996Z,23.60
2017-07-29T19:16:26.258Z,23.80
2017-07-29T19:18:54.537Z,23.80
2017-07-29T19:21:22.845Z,23.70
2017-07-29T19:23:51.128Z,23.70
2017-07-29T19:26:19.424Z,23.60
2017-07-29T19:28:47.729Z,23.60
2017-07-29T19:31:16.001Z,23.40
2017-07-29T19:33:44.266Z,23.40
2017-07-29T19:36:12.563Z,23.40
2017-07-29T19:38:40.869Z,23.30
2017-07-29T19:41:09.140Z,23.60
2017-07-29T19:43:37.401Z,23.60
2017-07-29T19:46:05.680Z,23.50
2017-07-29T19:48:33.945Z,23.40
2017-07-29T19:51:02.228Z,23.30
2017-07-29T19:53:30.492Z,23.30
2017-07-29T19:55:58.788Z,23.20
2017-07-29T19:58:27.077Z,23.10
2017-07-29T20:00:55.384Z,23.00
2017-07-29T20:03:23.652Z,22.90
2017-07-29T20:05:51.917Z,23.00
2017-07-29T20:08:20.246Z,23.00
2017-07-29T20:10:48.520Z,22.90
2017-07-29T20:13:16.775Z,22.70
2017-07-29T20:15:45.108Z,22.70
2017-07-29T20:18:13.368Z,22.60
2017-07-29T20:20:41.636Z,22.50
2017-07-29T20:23:09.934Z,22.50
2017-07-29T20:25:38.224Z,22.40
2017-07-29T20:28:06.521Z,22.40
2017-07-29T20:30:34.829Z,22.40
2017-07-29T20:33:03.092Z,22.30
2017-07-29T20:35:30.596Z,22.30
2017-07-29T20:37:58.913Z,22.40
2017-07-29T20:40:27.166Z,22.40
2017-07-29T20:42:55.428Z,22.30
2017-07-29T20:45:23.734Z,22.30
2017-07-29T20:47:51.991Z,22.30
2017-07-29T20:50:20.252Z,22.40
2017-07-29T20:52:48.532Z,22.30
2017-07-29T20:55:16.800Z,22.30
2017-07-29T20:57:45.093Z,22.30
2017-07-29T21:00:13.349Z,22.30
2017-07-29T21:02:41.655Z,22.30
2017-07-29T21:05:09.958Z,22.30
2017-07-29T21:07:38.252Z,22.30
2017-07-29T21:10:06.552Z,22.30
2017-07-29T21:12:34.813Z,22.20
2017-07-29T21:15:03.093Z,22.30
2017-07-29T21:17:30.621Z,22.20
2017-07-29T21:19:58.894Z,22.20
2017-07-29T21:22:27.210Z,22.10
2017-07-29T21:24:55.468Z,22.10
2017-07-29T21:27:23.761Z,22.00
2017-07-29T21:29:52.043Z,22.00
2017-07-29T21:32:20.322Z,22.00
2017-07-29T21:34:48.629Z,21.90
2017-07-29T21:37:16.889Z,21.90
2017-07-29T21:39:45.151Z,21.90
2017-07-29T21:42:13.439Z,21.80
2017-07-29T21:44:41.701Z,21.80
2017-07-29T21:47:10.004Z,21.80
2017-07-29T21:49:38.259Z,21.70
2017-07-29T21:52:06.528Z,21.60
2017-07-29T21:54:35.743Z,21.60
2017-07-29T21:57:03.995Z,21.50
2017-07-29T21:59:32.251Z,21.50
2017-07-29T22:02:00.528Z,21.60
2017-07-29T22:04:28.790Z,21.60
2017-07-29T22:06:57.099Z,21.60
2017-07-29T22:09:25.368Z,21.50
2017-07-29T22:11:53.627Z,21.50
2017-07-29T22:14:21.917Z,21.60
2017-07-29T22:16:50.181Z,21.50
2017-07-29T22:19:18.469Z,21.60
2017-07-29T22:21:46.749Z,21.60
2017-07-29T22:24:15.032Z,21.60
2017-07-29T22:26:43.327Z,21.50
2017-07-29T22:29:11.599Z,21.50
2017-07-29T22:31:39.902Z,21.60
2017-07-29T22:34:08.164Z,21.60
2017-07-29T22:36:36.432Z,21.60
2017-07-29T22:39:04.796Z,21.60
2017-07-29T22:41:33.057Z,21.60
2017-07-29T22:44:01.324Z,21.50
2017-07-29T22:46:29.613Z,21.50
2017-07-29T22:48:57.907Z,21.50
2017-07-29T22:51:26.231Z,21.50
2017-07-29T22:53:54.518Z,21.50
2017-07-29T22:56:22.774Z,21.50
2017-07-29T22:58:50.307Z,21.50
2017-07-29T23:01:18.620Z,21.50
2017-07-29T23:03:46.877Z,21.40
2017-07-29T23:06:15.131Z,21.50
2017-07-29T23:08:43.412Z,21.40
2017-07-29T23:11:11.687Z,21.40
2017-07-29T23:13:39.974Z,21.50
2017-07-29T23:16:08.237Z,21.50
2017-07-29T23:18:36.549Z,21.60
2017-07-29T23:21:04.814Z,21.50
2017-07-29T23:23:33.076Z,21.70
2017-07-29T23:26:01.364Z,21.70
2017-07-29T23:28:29.629Z,21.60
2017-07-29T23:30:57.929Z,21.80
2017-07-29T23:33:26.196Z,21.70
2017-07-29T23:35:54.490Z,21.80
2017-07-29T23:38:22.833Z,21.70
2017-07-29T23:40:51.092Z,21.90
2017-07-29T23:43:19.357Z,21.80
2017-07-29T23:45:46.913Z,21.80
2017-07-29T23:48:15.192Z,21.90
2017-07-29T23:50:43.465Z,22.00
2017-07-29T23:53:11.771Z,22.00
2017-07-29T23:55:40.068Z,22.00
2017-07-29T23:58:08.355Z,22.10
